Ana Sayfa
METAR-TAF:

METAR-TAF

Havaalanları :

Funafuti, Tuvalu

Enlem: 08-31S, Boylam: 179-13E, yükseklik: 1 m

Güncel hava durumu gözlemi

Rapor saat 22:00 UTC de 19 dakika önce yapıldı.
Rüzgar kuzeydoğudan 7 kt
Sıcaklık 31°C
Nem 66%
Basınç 1011 hPa
Görüş mesafesi 10 km veya daha fazla
2100 ft yükseklikte az bulutlu
31000 ft yükseklikte parçalı çok bulutlu

METAR: NGFU 222200Z 04007KT 9999 FEW021 BKN310 31/24 Q1011

Saat: 10:19 (22:19 UTC)

Tahmin

Rapor saat 17:07 UTC de 5 saat ve 12 dakika önce yapıldı.
Ayın 22'si saat 18 UTC'den ayın 23'si saat 18 UTC'ye kadar geçerli Tahmin
Rüzgar doğudan 8 kt
Görüş mesafesi 10 km veya daha fazla
2000 ft yükseklikte parçalı bulutlu

TAF: NGFU 221707Z 2218/2318 09008KT 9999 SCT020

4.000'den fazla havaalanı için hava durumu gözlemleri ve tahminleri (METAR ve TAF raporları).

Kullanılabilir istasyonlar harita üzerinde sarı ve kırmızı noktalarla gösterilir.

İstasyonun adını görmek için fareyi noktanın üzerinde gezdirin.

Sonrasında hava gözlem ve tahminlerini görmek için tıklayın.

Haritayı değiştirmek için: yaklaştırmak için siyah artı işaretli yeşil düğmeye ve uzaklaştırmak için de eksi işaretli düğmeye hızla tıklayın; bitişik haritalar için yeşil okları kullanın.


METAR-TAF: